createdAt,value
2022-10-18T00:02:39.301Z,27.13
2022-10-18T00:05:40.653Z,25.42
2022-10-18T00:08:42.057Z,23.80
2022-10-18T00:11:43.409Z,28.60
2022-10-18T00:14:44.742Z,27.00
2022-10-18T00:17:46.086Z,30.23
2022-10-18T00:21:00.281Z,26.00
2022-10-18T00:24:01.869Z,30.10
2022-10-18T00:27:03.245Z,33.55
2022-10-18T00:30:05.450Z,25.42
2022-10-18T00:33:06.797Z,30.00
2022-10-18T00:36:08.836Z,28.58
2022-10-18T00:39:15.826Z,25.60
2022-10-18T00:42:19.606Z,26.98
2022-10-18T00:45:23.265Z,28.30
2022-10-18T00:48:24.770Z,28.40
2022-10-18T00:51:30.951Z,31.58
2022-10-18T00:54:36.727Z,35.92
2022-10-18T00:57:41.641Z,32.75
2022-10-18T01:00:43.101Z,35.05
2022-10-18T01:03:44.548Z,33.60
2022-10-18T01:07:21.536Z,35.72
2022-10-18T01:10:47.323Z,43.28
2022-10-18T01:13:54.756Z,41.95
2022-10-18T01:17:01.123Z,38.38
2022-10-18T01:20:37.303Z,42.75
2022-10-18T01:24:14.289Z,36.33
2022-10-18T01:27:45.237Z,37.97
2022-10-18T01:31:09.772Z,29.25
2022-10-18T01:34:15.530Z,37.60
2022-10-18T01:37:19.777Z,41.42
2022-10-18T01:40:23.464Z,40.58
2022-10-18T01:43:27.553Z,34.50
2022-10-18T01:46:29.396Z,40.35
2022-10-18T01:49:30.730Z,43.15
2022-10-18T01:52:32.431Z,40.80
2022-10-18T01:55:48.460Z,33.50
2022-10-18T01:59:11.085Z,39.30
2022-10-18T02:02:12.399Z,36.55
2022-10-18T02:05:31.298Z,32.88
2022-10-18T02:08:48.495Z,28.52
2022-10-18T02:11:53.827Z,28.13
2022-10-18T02:14:57.354Z,30.48
2022-10-18T02:17:59.175Z,28.40
2022-10-18T02:21:02.723Z,33.47
2022-10-18T02:24:06.016Z,33.60
2022-10-18T02:30:09.968Z,29.23
2022-10-18T02:33:27.915Z,47.65
2022-10-18T02:36:38.661Z,42.33
2022-10-18T02:39:47.663Z,32.75
2022-10-18T02:42:51.296Z,36.05
2022-10-18T02:45:53.096Z,33.40
2022-10-18T02:48:54.449Z,31.63
2022-10-18T02:51:55.775Z,31.55
2022-10-18T02:54:57.112Z,35.00
2022-10-18T02:57:58.452Z,28.33
2022-10-18T03:00:59.792Z,27.52
2022-10-18T03:04:01.403Z,30.55
2022-10-18T03:07:02.816Z,39.92
2022-10-18T03:10:04.425Z,31.25
2022-10-18T03:13:05.860Z,27.67
2022-10-18T03:16:07.224Z,28.30
2022-10-18T03:19:08.569Z,34.08
2022-10-18T03:22:09.980Z,37.03
2022-10-18T03:25:11.336Z,40.90
2022-10-18T03:28:12.785Z,43.15
2022-10-18T03:31:14.171Z,41.97
2022-10-18T03:34:15.523Z,48.17
2022-10-18T03:37:16.869Z,48.13
2022-10-18T03:40:18.207Z,48.92
2022-10-18T03:43:19.660Z,44.83
2022-10-18T03:46:21.038Z,52.05
2022-10-18T03:49:22.429Z,44.85
2022-10-18T03:52:23.839Z,52.10
2022-10-18T03:55:25.181Z,52.15
2022-10-18T03:58:26.656Z,47.40
2022-10-18T04:01:28.062Z,49.75
2022-10-18T04:04:29.414Z,58.58
2022-10-18T04:07:30.897Z,53.28
2022-10-18T04:10:32.327Z,42.92
2022-10-18T04:13:34.603Z,49.00
2022-10-18T04:19:42.172Z,48.30
2022-10-18T04:22:43.508Z,45.67
2022-10-18T04:25:44.868Z,47.45
2022-10-18T04:28:46.302Z,46.58
2022-10-18T04:31:47.700Z,52.50
2022-10-18T04:34:49.052Z,44.67
2022-10-18T04:37:50.407Z,46.60
2022-10-18T04:40:51.782Z,46.63
2022-10-18T04:43:53.121Z,51.55
2022-10-18T04:46:54.508Z,47.95
2022-10-18T04:49:55.836Z,59.53
2022-10-18T04:52:57.363Z,62.50
2022-10-18T04:55:58.759Z,55.90
2022-10-18T04:59:00.112Z,58.30
2022-10-18T05:02:01.483Z,54.97
2022-10-18T05:05:02.959Z,55.67
2022-10-18T05:08:04.796Z,46.80
2022-10-18T05:11:06.254Z,54.15
2022-10-18T05:14:07.666Z,53.28
2022-10-18T05:17:09.094Z,56.88
2022-10-18T05:20:10.663Z,57.83
2022-10-18T05:23:12.297Z,51.38
2022-10-18T05:26:13.618Z,54.17
2022-10-18T05:29:15.075Z,53.33
2022-10-18T05:32:16.714Z,52.28
2022-10-18T05:35:18.058Z,51.97
2022-10-18T05:38:19.502Z,41.85
2022-10-18T05:41:21.277Z,45.80
2022-10-18T05:44:22.679Z,42.47
2022-10-18T06:13:00.963Z,43.05
2022-10-18T06:16:02.289Z,48.83
2022-10-18T06:19:03.899Z,51.17
2022-10-18T06:22:05.211Z,45.45
2022-10-18T06:25:06.753Z,45.70
2022-10-18T06:28:10.205Z,44.13
2022-10-18T06:31:14.070Z,43.13
2022-10-18T06:34:15.450Z,40.22
2022-10-18T06:37:16.756Z,42.38
2022-10-18T06:40:18.091Z,40.13
2022-10-18T06:43:21.503Z,40.63
2022-10-18T06:46:23.620Z,44.03
2022-10-18T06:49:25.007Z,42.10
2022-10-18T06:52:26.357Z,46.80
2022-10-18T06:55:27.857Z,41.97
2022-10-18T06:58:30.313Z,48.30
2022-10-18T07:01:31.750Z,40.60
2022-10-18T07:04:33.189Z,40.38
2022-10-18T07:07:34.794Z,44.72
2022-10-18T07:10:36.425Z,40.80
2022-10-18T07:13:37.766Z,42.65
2022-10-18T07:16:39.135Z,43.95
2022-10-18T07:19:40.479Z,44.72
2022-10-18T07:22:41.910Z,43.97
2022-10-18T07:25:43.230Z,43.60
2022-10-18T07:28:47.378Z,39.75
2022-10-18T07:31:48.790Z,37.03
2022-10-18T07:34:50.118Z,36.58
2022-10-18T07:37:51.455Z,34.10
2022-10-18T07:41:04.223Z,35.28
2022-10-18T07:44:05.547Z,34.93
2022-10-18T07:47:06.887Z,36.80
2022-10-18T07:50:08.552Z,36.50
2022-10-18T07:53:09.863Z,34.15
2022-10-18T07:56:13.916Z,30.95
2022-10-18T07:59:15.229Z,31.65
2022-10-18T08:02:16.563Z,39.03
2022-10-18T08:05:17.889Z,31.73
2022-10-18T08:08:20.315Z,30.10
2022-10-18T08:11:24.213Z,31.50
2022-10-18T08:14:25.625Z,29.80
2022-10-18T08:17:26.980Z,24.40
2022-10-18T08:20:31.573Z,27.52
2022-10-18T08:23:34.108Z,29.23
2022-10-18T08:26:35.469Z,30.20
2022-10-18T08:29:36.878Z,24.77
2022-10-18T08:32:38.245Z,28.73
2022-10-18T08:35:39.614Z,28.08
2022-10-18T08:38:42.361Z,28.38
2022-10-18T08:42:08.750Z,27.33
2022-10-18T08:45:23.443Z,30.95
2022-10-18T08:48:54.914Z,28.52
2022-10-18T08:51:57.861Z,27.75
2022-10-18T08:55:31.213Z,28.08
2022-10-18T08:58:33.226Z,27.70
2022-10-18T09:02:09.438Z,21.17
2022-10-18T09:05:25.136Z,23.08
2022-10-18T09:08:47.760Z,29.40
2022-10-18T09:12:13.878Z,25.38
2022-10-18T09:15:29.658Z,23.35
2022-10-18T09:18:55.887Z,24.48
2022-10-18T09:22:13.588Z,20.20
2022-10-18T09:25:36.128Z,22.67
2022-10-18T09:28:48.099Z,18.33
2022-10-18T09:32:04.362Z,19.70
2022-10-18T09:35:17.762Z,20.40
2022-10-18T09:38:23.243Z,19.90
2022-10-18T09:41:51.403Z,18.35
2022-10-18T09:45:28.751Z,20.73
2022-10-18T09:48:41.390Z,21.30
2022-10-18T09:51:44.764Z,23.70
2022-10-18T09:55:02.964Z,28.35
2022-10-18T09:58:07.827Z,20.92
2022-10-18T10:01:11.445Z,18.38
2022-10-18T10:04:12.761Z,18.67
2022-10-18T10:07:34.862Z,18.40
2022-10-18T10:10:40.213Z,18.10
2022-10-18T10:13:41.545Z,19.38
2022-10-18T10:17:05.157Z,15.30
2022-10-18T10:20:21.118Z,14.30
2022-10-18T10:23:53.940Z,12.55
2022-10-18T10:27:01.203Z,15.23
2022-10-18T10:30:06.987Z,17.63
2022-10-18T10:33:38.375Z,14.32
2022-10-18T10:36:53.156Z,10.93
2022-10-18T10:40:18.222Z,14.10
2022-10-18T10:43:37.683Z,12.05
2022-10-18T10:46:39.875Z,16.20
2022-10-18T10:49:45.781Z,11.88
2022-10-18T10:52:47.402Z,14.23
2022-10-18T10:55:54.737Z,14.18
2022-10-18T10:59:01.660Z,15.35
2022-10-18T11:02:15.038Z,12.65
2022-10-18T11:08:26.993Z,11.27
2022-10-18T11:11:33.486Z,16.17
2022-10-18T11:14:44.651Z,12.93
2022-10-18T11:18:18.315Z,13.43
2022-10-18T11:24:24.848Z,13.10
2022-10-18T11:27:39.232Z,14.20
2022-10-18T11:31:10.504Z,14.93
2022-10-18T11:34:23.959Z,12.88
2022-10-18T11:38:00.292Z,13.40
2022-10-18T11:41:27.294Z,11.38
2022-10-18T11:44:56.241Z,9.18
2022-10-18T11:48:09.632Z,10.88
2022-10-18T11:51:38.875Z,12.13
2022-10-18T11:55:30.310Z,11.52
2022-10-18T11:59:02.253Z,9.55
2022-10-18T12:02:29.482Z,9.43
2022-10-18T12:05:32.739Z,8.73
2022-10-18T12:08:46.814Z,11.18
2022-10-18T12:11:55.706Z,10.00
2022-10-18T12:15:02.482Z,10.52
2022-10-18T12:18:13.113Z,10.27
2022-10-18T12:21:14.465Z,9.63
2022-10-18T12:24:20.386Z,10.25
2022-10-18T12:27:33.966Z,12.27
2022-10-18T12:30:44.150Z,7.97
2022-10-18T12:33:50.203Z,7.13
2022-10-18T12:37:25.471Z,9.18
2022-10-18T12:40:43.754Z,5.68
2022-10-18T12:43:52.175Z,12.27
2022-10-18T12:46:56.174Z,6.95
2022-10-18T12:50:00.483Z,7.78
2022-10-18T12:53:17.835Z,9.95
2022-10-18T12:56:28.316Z,7.03
2022-10-18T12:59:29.639Z,9.43
2022-10-18T13:02:31.572Z,7.53
2022-10-18T13:06:00.710Z,11.43
2022-10-18T13:09:17.443Z,5.78
2022-10-18T13:12:18.711Z,6.70
2022-10-18T13:15:47.088Z,10.52
2022-10-18T13:18:55.271Z,5.35
2022-10-18T13:22:21.381Z,7.50
2022-10-18T13:25:54.245Z,6.63
2022-10-18T13:29:14.499Z,6.43
2022-10-18T13:32:36.554Z,9.65
2022-10-18T13:35:55.743Z,4.18
2022-10-18T13:38:57.037Z,10.05
2022-10-18T13:41:58.326Z,6.72
2022-10-18T13:45:32.176Z,6.78
2022-10-18T13:48:33.461Z,5.38
2022-10-18T13:51:37.473Z,11.77
2022-10-18T13:54:57.637Z,8.00
2022-10-18T13:58:41.110Z,10.52
2022-10-18T14:01:53.304Z,6.22
2022-10-18T14:05:25.869Z,10.75
2022-10-18T14:08:39.984Z,11.52
2022-10-18T14:11:46.404Z,9.32
2022-10-18T14:14:57.679Z,8.43
2022-10-18T14:18:04.607Z,8.80
2022-10-18T14:21:21.620Z,8.38
2022-10-18T14:24:26.910Z,6.38
2022-10-18T14:27:31.004Z,8.38
2022-10-18T14:30:32.772Z,6.22
2022-10-18T14:33:37.686Z,8.10
2022-10-18T14:36:45.512Z,7.38
2022-10-18T14:39:46.938Z,8.95
2022-10-18T14:42:48.904Z,9.52
2022-10-18T14:45:50.281Z,8.20
2022-10-18T14:48:52.244Z,9.48
2022-10-18T14:51:56.640Z,6.68
2022-10-18T14:54:59.465Z,8.25
2022-10-18T14:58:01.873Z,6.97
2022-10-18T15:01:04.352Z,6.33
2022-10-18T15:04:10.267Z,7.18
2022-10-18T15:07:17.245Z,7.47
2022-10-18T15:10:25.490Z,7.00
2022-10-18T15:13:27.646Z,9.05
2022-10-18T15:16:31.481Z,7.77
2022-10-18T15:19:37.681Z,8.70
2022-10-18T15:22:39.058Z,7.78
2022-10-18T15:25:40.431Z,11.10
2022-10-18T15:28:44.142Z,7.32
2022-10-18T15:31:48.007Z,5.72
2022-10-18T15:34:49.378Z,7.97
2022-10-18T15:37:51.182Z,8.45
2022-10-18T15:40:53.023Z,10.25
2022-10-18T15:44:18.175Z,7.22
2022-10-18T15:47:20.223Z,8.02
2022-10-18T15:50:40.415Z,9.55
2022-10-18T15:53:53.497Z,6.63
2022-10-18T15:56:55.234Z,10.15
2022-10-18T16:00:07.573Z,13.77
2022-10-18T16:03:16.045Z,8.27
2022-10-18T16:06:18.556Z,7.25
2022-10-18T16:09:21.192Z,7.28
2022-10-18T16:12:22.545Z,7.03
2022-10-18T16:15:24.085Z,10.23
2022-10-18T16:18:26.229Z,4.47
2022-10-18T16:21:30.809Z,8.90
2022-10-18T16:24:32.150Z,8.80
2022-10-18T16:27:33.501Z,8.07
2022-10-18T16:30:35.920Z,9.63
2022-10-18T16:33:37.237Z,9.80
2022-10-18T16:36:38.577Z,7.80
2022-10-18T16:39:39.959Z,8.88
2022-10-18T16:42:41.289Z,5.47
2022-10-18T16:45:42.878Z,10.73
2022-10-18T16:48:45.667Z,7.43
2022-10-18T16:51:47.038Z,9.60
2022-10-18T16:54:48.370Z,8.88
2022-10-18T16:57:49.722Z,5.30
2022-10-18T17:00:51.775Z,10.05
2022-10-18T17:03:53.811Z,7.28
2022-10-18T17:06:57.592Z,5.57
2022-10-18T17:09:58.919Z,9.30
2022-10-18T17:13:00.277Z,7.47
2022-10-18T17:16:01.737Z,10.60
2022-10-18T17:19:05.655Z,6.22
2022-10-18T17:22:06.988Z,7.80
2022-10-18T17:25:08.492Z,9.38
2022-10-18T17:28:12.616Z,9.25
2022-10-18T17:31:14.813Z,10.05
2022-10-18T17:34:20.835Z,7.72
2022-10-18T17:37:22.639Z,10.13
2022-10-18T17:40:24.084Z,7.22
2022-10-18T17:43:25.451Z,5.35
2022-10-18T17:46:26.868Z,4.05
2022-10-18T17:49:28.348Z,11.30
2022-10-18T17:52:30.237Z,8.23
2022-10-18T17:55:33.224Z,5.75
2022-10-18T17:58:35.019Z,9.43
2022-10-18T18:01:36.499Z,5.60
2022-10-18T18:04:37.889Z,9.43
2022-10-18T18:07:39.238Z,11.45
2022-10-18T18:10:41.149Z,4.80
2022-10-18T18:13:42.562Z,8.70
2022-10-18T18:16:46.274Z,7.57
2022-10-18T18:22:53.895Z,9.45
2022-10-18T18:25:56.573Z,5.35
2022-10-18T18:28:58.335Z,10.23
2022-10-18T18:31:59.778Z,6.28
2022-10-18T18:35:01.242Z,9.20
2022-10-18T18:41:20.084Z,5.10
2022-10-18T18:44:22.552Z,10.57
2022-10-18T18:47:23.949Z,7.43
2022-10-18T18:50:25.378Z,4.32
2022-10-18T18:53:29.510Z,7.10
2022-10-18T18:56:31.314Z,6.93
2022-10-18T18:59:32.682Z,6.70
2022-10-18T19:02:34.043Z,9.07
2022-10-18T19:05:36.331Z,8.57
2022-10-18T19:08:39.119Z,6.13
2022-10-18T19:11:40.599Z,7.22
2022-10-18T19:14:41.951Z,5.43
2022-10-18T19:17:43.287Z,4.88
2022-10-18T19:20:44.639Z,6.80
2022-10-18T19:23:45.979Z,5.72
2022-10-18T19:26:51.799Z,4.18
2022-10-18T19:29:53.161Z,7.47
2022-10-18T19:32:54.520Z,4.70
2022-10-18T19:35:55.896Z,4.65
2022-10-18T19:38:57.823Z,5.90
2022-10-18T19:42:00.761Z,6.20
2022-10-18T19:45:02.140Z,3.28
2022-10-18T19:48:03.828Z,8.32
2022-10-18T19:51:09.004Z,7.82
2022-10-18T19:54:12.608Z,5.97
2022-10-18T19:57:14.007Z,4.43
2022-10-18T20:00:19.300Z,5.10
2022-10-18T20:03:21.818Z,7.40
2022-10-18T20:06:23.241Z,7.88
2022-10-18T20:09:24.606Z,10.55
2022-10-18T20:12:25.962Z,8.93
2022-10-18T20:15:27.308Z,7.10
2022-10-18T20:18:28.665Z,8.88
2022-10-18T20:21:31.451Z,8.98
2022-10-18T20:24:32.803Z,7.10
2022-10-18T20:27:34.371Z,8.00
2022-10-18T20:30:36.051Z,5.65
2022-10-18T20:33:38.211Z,7.57
2022-10-18T20:36:40.036Z,5.97
2022-10-18T20:39:41.374Z,8.43
2022-10-18T20:42:42.715Z,8.70
2022-10-18T20:45:44.068Z,9.40
2022-10-18T20:48:45.389Z,4.88
2022-10-18T20:51:46.723Z,11.73
2022-10-18T20:54:48.052Z,9.63
2022-10-18T20:57:49.376Z,8.43
2022-10-18T21:00:50.704Z,11.32
2022-10-18T21:03:53.795Z,15.57
2022-10-18T21:06:55.201Z,9.23
2022-10-18T21:09:56.528Z,5.70
2022-10-18T21:12:57.884Z,9.75
2022-10-18T21:16:00.708Z,8.70
2022-10-18T21:19:06.774Z,6.20
2022-10-18T21:22:08.129Z,6.80
2022-10-18T21:25:09.462Z,8.75
2022-10-18T21:28:10.849Z,8.35
2022-10-18T21:31:15.169Z,3.67
2022-10-18T21:34:17.276Z,5.90
2022-10-18T21:37:18.622Z,6.82
2022-10-18T21:40:19.989Z,9.00
2022-10-18T21:43:21.339Z,4.63
2022-10-18T21:46:24.423Z,3.92
2022-10-18T21:49:25.758Z,7.25
2022-10-18T21:52:27.110Z,3.38
2022-10-18T21:55:28.486Z,6.25
2022-10-18T21:58:29.817Z,5.30
2022-10-18T22:01:33.763Z,3.63
2022-10-18T22:04:35.160Z,3.75
2022-10-18T22:07:36.678Z,7.45
2022-10-18T22:10:38.180Z,7.88
2022-10-18T22:13:40.734Z,4.28
2022-10-18T22:16:42.088Z,3.33
2022-10-18T22:19:43.454Z,5.43
2022-10-18T22:22:44.787Z,3.25
2022-10-18T22:25:46.139Z,3.40
2022-10-18T22:28:48.031Z,7.00
2022-10-18T22:31:52.173Z,2.65
2022-10-18T22:34:53.498Z,6.63
2022-10-18T22:37:54.822Z,4.15
2022-10-18T22:40:56.153Z,4.45
2022-10-18T22:43:59.779Z,5.57
2022-10-18T22:47:03.972Z,4.80
2022-10-18T22:50:05.828Z,5.45
2022-10-18T22:53:07.396Z,5.53
2022-10-18T22:56:12.408Z,4.53
2022-10-18T22:59:13.747Z,4.75
2022-10-18T23:02:15.084Z,6.13
2022-10-18T23:05:16.471Z,4.95
2022-10-18T23:08:17.812Z,6.28
2022-10-18T23:11:19.688Z,7.15
2022-10-18T23:14:21.022Z,7.35
2022-10-18T23:17:22.341Z,5.65
2022-10-18T23:20:24.337Z,8.68
2022-10-18T23:23:25.654Z,5.25
2022-10-18T23:26:27.869Z,4.82
2022-10-18T23:29:29.193Z,4.70
2022-10-18T23:32:30.633Z,6.07
2022-10-18T23:35:32.043Z,5.40
2022-10-18T23:38:34.637Z,8.85
2022-10-18T23:41:35.981Z,4.13
2022-10-18T23:44:37.293Z,8.30
2022-10-18T23:47:38.622Z,5.80
2022-10-18T23:50:39.975Z,7.70
2022-10-18T23:53:41.474Z,5.82
2022-10-18T23:56:42.859Z,7.43
2022-10-18T23:59:44.182Z,5.47
